sensor_id;sensor_type;location;lat;lon;timestamp;pressure;altitude;pressure_sealevel;temperature;humidity
66524;BME280;53350;52.210;5.160;2023-06-10T00:00:39;101541.47;;;22.66;45.97
66524;BME280;53350;52.210;5.160;2023-06-10T00:03:07;101546.91;;;22.63;45.97
66524;BME280;53350;52.210;5.160;2023-06-10T00:05:33;101544.34;;;22.61;46.39
66524;BME280;53350;52.210;5.160;2023-06-10T00:08:01;101545.34;;;22.58;46.24
66524;BME280;53350;52.210;5.160;2023-06-10T00:10:32;101538.72;;;22.51;46.71
66524;BME280;53350;52.210;5.160;2023-06-10T00:13:00;101544.22;;;22.47;46.54
66524;BME280;53350;52.210;5.160;2023-06-10T00:15:26;101543.50;;;22.43;46.71
66524;BME280;53350;52.210;5.160;2023-06-10T00:17:53;101543.66;;;22.40;47.06
66524;BME280;53350;52.210;5.160;2023-06-10T00:20:20;101547.22;;;22.39;46.71
66524;BME280;53350;52.210;5.160;2023-06-10T00:22:48;101543.81;;;22.37;47.02
66524;BME280;53350;52.210;5.160;2023-06-10T00:25:15;101544.00;;;22.34;47.16
66524;BME280;53350;52.210;5.160;2023-06-10T00:27:42;101549.25;;;22.34;46.66
66524;BME280;53350;52.210;5.160;2023-06-10T00:30:11;101546.69;;;22.32;47.00
66524;BME280;53350;52.210;5.160;2023-06-10T00:32:37;101543.31;;;22.29;46.60
66524;BME280;53350;52.210;5.160;2023-06-10T00:35:05;101543.81;;;22.19;46.61
66524;BME280;53350;52.210;5.160;2023-06-10T00:37:31;101543.09;;;22.16;47.04
66524;BME280;53350;52.210;5.160;2023-06-10T00:40:00;101548.66;;;22.10;46.58
66524;BME280;53350;52.210;5.160;2023-06-10T00:42:27;101547.03;;;22.07;46.68
66524;BME280;53350;52.210;5.160;2023-06-10T00:44:54;101546.94;;;22.09;46.65
66524;BME280;53350;52.210;5.160;2023-06-10T00:47:22;101547.19;;;22.04;46.74
66524;BME280;53350;52.210;5.160;2023-06-10T00:49:49;101547.25;;;22.02;46.77
66524;BME280;53350;52.210;5.160;2023-06-10T00:52:17;101551.75;;;22.00;46.41
66524;BME280;53350;52.210;5.160;2023-06-10T00:54:44;101544.88;;;21.98;46.41
66524;BME280;53350;52.210;5.160;2023-06-10T00:57:12;101550.09;;;21.98;46.36
66524;BME280;53350;52.210;5.160;2023-06-10T00:59:39;101550.25;;;21.95;46.60
66524;BME280;53350;52.210;5.160;2023-06-10T01:02:06;101550.41;;;21.92;46.13
66524;BME280;53350;52.210;5.160;2023-06-10T01:04:34;101545.41;;;21.87;46.29
66524;BME280;53350;52.210;5.160;2023-06-10T01:07:07;101551.72;;;21.83;46.04
66524;BME280;53350;52.210;5.160;2023-06-10T01:09:42;101555.47;;;21.77;46.50
66524;BME280;53350;52.210;5.160;2023-06-10T01:12:15;101546.97;;;21.72;46.32
66524;BME280;53350;52.210;5.160;2023-06-10T01:14:43;101550.59;;;21.69;46.38
66524;BME280;53350;52.210;5.160;2023-06-10T01:17:10;101552.44;;;21.67;46.18
66524;BME280;53350;52.210;5.160;2023-06-10T01:19:38;101558.69;;;21.65;46.16
66524;BME280;53350;52.210;5.160;2023-06-10T01:22:07;101554.38;;;21.64;46.02
66524;BME280;53350;52.210;5.160;2023-06-10T01:24:33;101557.13;;;21.61;46.15
66524;BME280;53350;52.210;5.160;2023-06-10T01:27:01;101561.66;;;21.57;46.11
66524;BME280;53350;52.210;5.160;2023-06-10T01:29:35;101554.88;;;21.53;46.07
66524;BME280;53350;52.210;5.160;2023-06-10T01:32:06;101547.97;;;21.50;46.24
66524;BME280;53350;52.210;5.160;2023-06-10T01:34:35;101552.25;;;21.53;46.36
66524;BME280;53350;52.210;5.160;2023-06-10T01:37:03;101562.81;;;21.51;46.14
66524;BME280;53350;52.210;5.160;2023-06-10T01:39:32;101558.41;;;21.52;45.90
66524;BME280;53350;52.210;5.160;2023-06-10T01:41:58;101563.75;;;21.49;45.92
66524;BME280;53350;52.210;5.160;2023-06-10T01:44:27;101556.97;;;21.45;46.24
66524;BME280;53350;52.210;5.160;2023-06-10T01:46:53;101563.28;;;21.41;46.14
66524;BME280;53350;52.210;5.160;2023-06-10T01:49:20;101554.69;;;21.37;46.36
66524;BME280;53350;52.210;5.160;2023-06-10T01:51:49;101556.56;;;21.35;46.77
66524;BME280;53350;52.210;5.160;2023-06-10T01:54:15;101562.84;;;21.31;46.44
66524;BME280;53350;52.210;5.160;2023-06-10T01:56:43;101553.28;;;21.30;46.85
66524;BME280;53350;52.210;5.160;2023-06-10T01:59:10;101560.38;;;21.28;46.65
66524;BME280;53350;52.210;5.160;2023-06-10T02:01:36;101565.75;;;21.25;47.01
66524;BME280;53350;52.210;5.160;2023-06-10T02:04:03;101562.28;;;21.24;47.00
66524;BME280;53350;52.210;5.160;2023-06-10T02:06:29;101564.97;;;21.23;46.82
66524;BME280;53350;52.210;5.160;2023-06-10T02:08:56;101563.31;;;21.20;47.19
66524;BME280;53350;52.210;5.160;2023-06-10T02:11:22;101564.34;;;21.17;47.27
66524;BME280;53350;52.210;5.160;2023-06-10T02:13:50;101561.06;;;21.12;47.42
66524;BME280;53350;52.210;5.160;2023-06-10T02:16:17;101560.31;;;21.10;47.38
66524;BME280;53350;52.210;5.160;2023-06-10T02:18:44;101569.97;;;21.08;47.59
66524;BME280;53350;52.210;5.160;2023-06-10T02:21:11;101571.75;;;21.08;47.45
66524;BME280;53350;52.210;5.160;2023-06-10T02:23:37;101572.88;;;21.02;47.92
66524;BME280;53350;52.210;5.160;2023-06-10T02:26:04;101574.66;;;21.01;48.02
66524;BME280;53350;52.210;5.160;2023-06-10T02:28:30;101574.00;;;20.96;47.81
66524;BME280;53350;52.210;5.160;2023-06-10T02:30:58;101572.22;;;20.97;48.20
66524;BME280;53350;52.210;5.160;2023-06-10T02:33:25;101578.47;;;20.94;48.04
66524;BME280;53350;52.210;5.160;2023-06-10T02:35:52;101583.81;;;20.91;48.53
66524;BME280;53350;52.210;5.160;2023-06-10T02:38:18;101578.66;;;20.90;48.42
66524;BME280;53350;52.210;5.160;2023-06-10T02:40:45;101580.50;;;20.88;48.66
66524;BME280;53350;52.210;5.160;2023-06-10T02:43:11;101573.56;;;20.87;48.67
66524;BME280;53350;52.210;5.160;2023-06-10T02:45:38;101572.91;;;20.81;48.65
66524;BME280;53350;52.210;5.160;2023-06-10T02:48:06;101580.84;;;20.80;49.16
66524;BME280;53350;52.210;5.160;2023-06-10T02:50:33;101582.88;;;20.73;49.09
66524;BME280;53350;52.210;5.160;2023-06-10T02:52:59;101579.47;;;20.71;49.48
66524;BME280;53350;52.210;5.160;2023-06-10T02:55:26;101585.63;;;20.70;49.59
66524;BME280;53350;52.210;5.160;2023-06-10T02:57:53;101576.13;;;20.67;49.58
66524;BME280;53350;52.210;5.160;2023-06-10T03:00:20;101574.50;;;20.63;49.80
66524;BME280;53350;52.210;5.160;2023-06-10T03:02:46;101580.63;;;20.64;49.83
66524;BME280;53350;52.210;5.160;2023-06-10T03:05:15;101585.06;;;20.62;49.64
66524;BME280;53350;52.210;5.160;2023-06-10T03:07:42;101580.03;;;20.57;50.07
66524;BME280;53350;52.210;5.160;2023-06-10T03:10:08;101574.84;;;20.56;50.33
66524;BME280;53350;52.210;5.160;2023-06-10T03:12:35;101577.66;;;20.51;50.18
66524;BME280;53350;52.210;5.160;2023-06-10T03:15:02;101577.84;;;20.46;50.31
66524;BME280;53350;52.210;5.160;2023-06-10T03:17:29;101580.53;;;20.45;50.42
66524;BME280;53350;52.210;5.160;2023-06-10T03:19:55;101584.28;;;20.39;50.82
66524;BME280;53350;52.210;5.160;2023-06-10T03:22:23;101583.53;;;20.36;50.75
66524;BME280;53350;52.210;5.160;2023-06-10T03:24:50;101581.06;;;20.32;51.08
66524;BME280;53350;52.210;5.160;2023-06-10T03:27:16;101582.88;;;20.30;51.03
66524;BME280;53350;52.210;5.160;2023-06-10T03:29:43;101587.25;;;20.30;51.14
66524;BME280;53350;52.210;5.160;2023-06-10T03:32:10;101582.28;;;20.24;51.37
66524;BME280;53350;52.210;5.160;2023-06-10T03:34:36;101591.88;;;20.23;51.45
66524;BME280;53350;52.210;5.160;2023-06-10T03:37:04;101589.31;;;20.22;51.35
66524;BME280;53350;52.210;5.160;2023-06-10T03:39:32;101586.72;;;20.22;51.24
66524;BME280;53350;52.210;5.160;2023-06-10T03:41:59;101593.66;;;20.23;51.19
66524;BME280;53350;52.210;5.160;2023-06-10T03:44:25;101587.88;;;20.14;51.80
66524;BME280;53350;52.210;5.160;2023-06-10T03:46:53;101590.47;;;20.16;51.46
66524;BME280;53350;52.210;5.160;2023-06-10T03:49:19;101599.22;;;20.15;51.85
66524;BME280;53350;52.210;5.160;2023-06-10T03:51:46;101600.19;;;20.12;51.79
66524;BME280;53350;52.210;5.160;2023-06-10T03:54:12;101597.63;;;20.11;52.06
66524;BME280;53350;52.210;5.160;2023-06-10T03:56:40;101602.13;;;20.07;52.01
66524;BME280;53350;52.210;5.160;2023-06-10T03:59:06;101596.94;;;20.06;52.01
66524;BME280;53350;52.210;5.160;2023-06-10T04:01:33;101602.38;;;20.01;52.22
66524;BME280;53350;52.210;5.160;2023-06-10T04:04:00;101611.25;;;19.97;52.41
66524;BME280;53350;52.210;5.160;2023-06-10T04:06:27;101604.59;;;19.88;52.73
66524;BME280;53350;52.210;5.160;2023-06-10T04:08:54;101604.47;;;19.91;53.14
66524;BME280;53350;52.210;5.160;2023-06-10T04:11:21;101606.25;;;19.91;52.73
66524;BME280;53350;52.210;5.160;2023-06-10T04:13:50;101603.56;;;19.92;52.78
66524;BME280;53350;52.210;5.160;2023-06-10T04:16:16;101608.69;;;19.95;52.74
66524;BME280;53350;52.210;5.160;2023-06-10T04:18:43;101610.28;;;20.00;53.08
66524;BME280;53350;52.210;5.160;2023-06-10T04:21:09;101611.31;;;19.95;53.29
66524;BME280;53350;52.210;5.160;2023-06-10T04:23:36;101609.50;;;19.97;53.27
66524;BME280;53350;52.210;5.160;2023-06-10T04:26:04;101608.50;;;20.00;53.24
66524;BME280;53350;52.210;5.160;2023-06-10T04:28:31;101616.31;;;20.02;53.31
66524;BME280;53350;52.210;5.160;2023-06-10T04:30:58;101619.63;;;20.05;53.26
66524;BME280;53350;52.210;5.160;2023-06-10T04:33:25;101612.63;;;20.06;53.43
66524;BME280;53350;52.210;5.160;2023-06-10T04:35:51;101622.00;;;20.11;53.12
66524;BME280;53350;52.210;5.160;2023-06-10T04:38:18;101620.25;;;20.12;53.30
66524;BME280;53350;52.210;5.160;2023-06-10T04:40:44;101627.91;;;20.17;53.16
66524;BME280;53350;52.210;5.160;2023-06-10T04:43:11;101621.66;;;20.21;53.34
66524;BME280;53350;52.210;5.160;2023-06-10T04:45:38;101626.44;;;20.31;53.06
66524;BME280;53350;52.210;5.160;2023-06-10T04:48:06;101619.06;;;20.41;53.06
66524;BME280;53350;52.210;5.160;2023-06-10T04:50:32;101623.00;;;20.52;52.79
66524;BME280;53350;52.210;5.160;2023-06-10T04:52:59;101629.56;;;20.62;52.88
66524;BME280;53350;52.210;5.160;2023-06-10T04:55:25;101625.53;;;20.75;52.72
66524;BME280;53350;52.210;5.160;2023-06-10T04:57:52;101620.63;;;20.88;52.28
66524;BME280;53350;52.210;5.160;2023-06-10T05:00:18;101631.56;;;20.98;51.95
66524;BME280;53350;52.210;5.160;2023-06-10T05:02:45;101629.31;;;21.09;51.90
66524;BME280;53350;52.210;5.160;2023-06-10T05:05:15;101626.41;;;21.15;51.89
66524;BME280;53350;52.210;5.160;2023-06-10T05:07:42;101621.69;;;21.24;51.41
66524;BME280;53350;52.210;5.160;2023-06-10T05:10:09;101629.22;;;21.31;51.60
66524;BME280;53350;52.210;5.160;2023-06-10T05:12:37;101631.63;;;21.36;51.45
66524;BME280;53350;52.210;5.160;2023-06-10T05:15:04;101626.13;;;21.42;51.35
66524;BME280;53350;52.210;5.160;2023-06-10T05:17:31;101623.03;;;21.53;51.12
66524;BME280;53350;52.210;5.160;2023-06-10T05:19:57;101623.38;;;21.64;50.75
66524;BME280;53350;52.210;5.160;2023-06-10T05:22:25;101627.56;;;21.68;51.19
66524;BME280;53350;52.210;5.160;2023-06-10T05:24:52;101622.03;;;21.75;51.12
66524;BME280;53350;52.210;5.160;2023-06-10T05:27:19;101623.50;;;21.80;50.89
66524;BME280;53350;52.210;5.160;2023-06-10T05:29:46;101624.78;;;21.91;50.37
66524;BME280;53350;52.210;5.160;2023-06-10T05:32:13;101620.09;;;21.97;50.53
66524;BME280;53350;52.210;5.160;2023-06-10T05:34:39;101622.72;;;21.97;50.73
66524;BME280;53350;52.210;5.160;2023-06-10T05:37:06;101633.06;;;22.00;50.53
66524;BME280;53350;52.210;5.160;2023-06-10T05:39:35;101632.00;;;22.04;50.71
66524;BME280;53350;52.210;5.160;2023-06-10T05:42:03;101630.22;;;22.05;50.43
66524;BME280;53350;52.210;5.160;2023-06-10T05:44:31;101633.47;;;22.10;50.32
66524;BME280;53350;52.210;5.160;2023-06-10T05:46:58;101632.53;;;22.11;50.66
66524;BME280;53350;52.210;5.160;2023-06-10T05:49:24;101623.00;;;22.10;50.44
66524;BME280;53350;52.210;5.160;2023-06-10T05:51:51;101629.47;;;22.20;50.54
66524;BME280;53350;52.210;5.160;2023-06-10T05:54:18;101635.25;;;22.27;50.66
66524;BME280;53350;52.210;5.160;2023-06-10T05:56:46;101640.34;;;22.30;50.51
66524;BME280;53350;52.210;5.160;2023-06-10T05:59:12;101637.66;;;22.32;50.15
66524;BME280;53350;52.210;5.160;2023-06-10T06:01:39;101634.16;;;22.33;50.15
66524;BME280;53350;52.210;5.160;2023-06-10T06:04:05;101632.25;;;22.36;50.30
66524;BME280;53350;52.210;5.160;2023-06-10T06:06:32;101638.25;;;22.38;50.10
66524;BME280;53350;52.210;5.160;2023-06-10T06:08:58;101634.78;;;22.38;50.41
66524;BME280;53350;52.210;5.160;2023-06-10T06:11:25;101638.16;;;22.40;50.13
66524;BME280;53350;52.210;5.160;2023-06-10T06:13:53;101637.84;;;22.46;50.17
66524;BME280;53350;52.210;5.160;2023-06-10T06:16:20;101634.31;;;22.47;49.72
66524;BME280;53350;52.210;5.160;2023-06-10T06:18:46;101629.16;;;22.46;50.17
66524;BME280;53350;52.210;5.160;2023-06-10T06:21:13;101637.66;;;22.51;49.79
66524;BME280;53350;52.210;5.160;2023-06-10T06:23:39;101637.19;;;22.60;49.78
66524;BME280;53350;52.210;5.160;2023-06-10T06:26:06;101629.06;;;22.65;49.48
66524;BME280;53350;52.210;5.160;2023-06-10T06:28:32;101628.75;;;22.71;49.46
66524;BME280;53350;52.210;5.160;2023-06-10T06:31:00;101625.81;;;22.77;49.13
66524;BME280;53350;52.210;5.160;2023-06-10T06:33:26;101628.22;;;22.82;48.82
66524;BME280;53350;52.210;5.160;2023-06-10T06:35:53;101621.16;;;22.82;48.85
66524;BME280;53350;52.210;5.160;2023-06-10T06:38:19;101623.56;;;22.87;49.15
66524;BME280;53350;52.210;5.160;2023-06-10T06:40:46;101631.06;;;22.95;49.30
66524;BME280;53350;52.210;5.160;2023-06-10T06:43:12;101629.88;;;23.00;48.71
66524;BME280;53350;52.210;5.160;2023-06-10T06:45:38;101630.56;;;23.04;49.09
66524;BME280;53350;52.210;5.160;2023-06-10T06:48:06;101632.75;;;23.13;49.12
66524;BME280;53350;52.210;5.160;2023-06-10T06:50:33;101628.09;;;23.18;48.75
66524;BME280;53350;52.210;5.160;2023-06-10T06:52:59;101627.00;;;23.22;48.58
66524;BME280;53350;52.210;5.160;2023-06-10T06:55:26;101619.81;;;23.26;48.48
66524;BME280;53350;52.210;5.160;2023-06-10T06:57:52;101633.38;;;23.34;48.11
66524;BME280;53350;52.210;5.160;2023-06-10T07:00:19;101626.59;;;23.30;48.38
66524;BME280;53350;52.210;5.160;2023-06-10T07:02:45;101638.97;;;23.28;48.34
66524;BME280;53350;52.210;5.160;2023-06-10T07:05:13;101634.56;;;23.29;48.71
66524;BME280;53350;52.210;5.160;2023-06-10T07:07:39;101637.00;;;23.32;48.66
66524;BME280;53350;52.210;5.160;2023-06-10T07:10:07;101633.22;;;23.37;48.66
66524;BME280;53350;52.210;5.160;2023-06-10T07:12:33;101636.03;;;23.50;48.59
66524;BME280;53350;52.210;5.160;2023-06-10T07:14:59;101644.53;;;23.55;48.33
66524;BME280;53350;52.210;5.160;2023-06-10T07:17:26;101638.84;;;23.63;47.81
66524;BME280;53350;52.210;5.160;2023-06-10T07:19:53;101639.47;;;23.68;47.76
66524;BME280;53350;52.210;5.160;2023-06-10T07:22:23;101645.13;;;23.76;47.58
66524;BME280;53350;52.210;5.160;2023-06-10T07:24:50;101640.06;;;23.89;47.17
66524;BME280;53350;52.210;5.160;2023-06-10T07:27:17;101644.81;;;23.99;47.07
66524;BME280;53350;52.210;5.160;2023-06-10T07:29:43;101653.03;;;24.08;46.64
66524;BME280;53350;52.210;5.160;2023-06-10T07:32:09;101641.56;;;24.09;46.96
66524;BME280;53350;52.210;5.160;2023-06-10T07:34:36;101642.09;;;24.16;47.05
66524;BME280;53350;52.210;5.160;2023-06-10T07:37:03;101642.38;;;24.26;46.81
66524;BME280;53350;52.210;5.160;2023-06-10T07:39:31;101644.41;;;24.37;46.44
66524;BME280;53350;52.210;5.160;2023-06-10T07:41:57;101650.25;;;24.42;46.03
66524;BME280;53350;52.210;5.160;2023-06-10T07:44:23;101651.69;;;24.47;45.73
66524;BME280;53350;52.210;5.160;2023-06-10T07:46:50;101648.03;;;24.50;45.38
66524;BME280;53350;52.210;5.160;2023-06-10T07:49:16;101653.63;;;24.60;45.24
66524;BME280;53350;52.210;5.160;2023-06-10T07:51:43;101653.84;;;24.71;44.56
66524;BME280;53350;52.210;5.160;2023-06-10T07:54:09;101651.59;;;24.79;44.87
66524;BME280;53350;52.210;5.160;2023-06-10T07:56:38;101662.44;;;24.89;44.69
66524;BME280;53350;52.210;5.160;2023-06-10T07:59:05;101653.13;;;24.98;44.31
66524;BME280;53350;52.210;5.160;2023-06-10T08:01:31;101649.00;;;25.08;44.19
66524;BME280;53350;52.210;5.160;2023-06-10T08:03:58;101656.47;;;25.16;43.62
66524;BME280;53350;52.210;5.160;2023-06-10T08:06:24;101659.56;;;25.23;43.58
66524;BME280;53350;52.210;5.160;2023-06-10T08:08:51;101660.81;;;25.31;43.08
66524;BME280;53350;52.210;5.160;2023-06-10T08:11:17;101657.03;;;25.36;43.25
66524;BME280;53350;52.210;5.160;2023-06-10T08:13:45;101655.41;;;25.47;43.24
66524;BME280;53350;52.210;5.160;2023-06-10T08:16:12;101653.53;;;25.64;42.83
66524;BME280;53350;52.210;5.160;2023-06-10T08:18:38;101650.19;;;25.75;42.80
66524;BME280;53350;52.210;5.160;2023-06-10T08:21:04;101659.88;;;25.89;42.54
66524;BME280;53350;52.210;5.160;2023-06-10T08:23:31;101645.25;;;25.97;42.38
66524;BME280;53350;52.210;5.160;2023-06-10T08:25:57;101650.59;;;26.10;41.82
66524;BME280;53350;52.210;5.160;2023-06-10T08:28:24;101649.78;;;26.23;41.80
66524;BME280;53350;52.210;5.160;2023-06-10T08:30:52;101657.13;;;26.32;41.38
66524;BME280;53350;52.210;5.160;2023-06-10T08:33:18;101659.69;;;26.46;41.13
66524;BME280;53350;52.210;5.160;2023-06-10T08:35:45;101650.41;;;26.53;40.48
66524;BME280;53350;52.210;5.160;2023-06-10T08:38:11;101642.56;;;26.65;40.25
66524;BME280;53350;52.210;5.160;2023-06-10T08:40:38;101642.50;;;26.79;40.10
66524;BME280;53350;52.210;5.160;2023-06-10T08:43:06;101649.19;;;26.98;39.84
66524;BME280;53350;52.210;5.160;2023-06-10T08:45:35;101649.72;;;27.03;40.12
66524;BME280;53350;52.210;5.160;2023-06-10T08:48:04;101638.06;;;27.05;39.57
66524;BME280;53350;52.210;5.160;2023-06-10T08:50:34;101646.31;;;27.14;39.78
66524;BME280;53350;52.210;5.160;2023-06-10T08:53:01;101645.38;;;27.15;39.25
66524;BME280;53350;52.210;5.160;2023-06-10T08:55:32;101644.59;;;27.25;39.03
66524;BME280;53350;52.210;5.160;2023-06-10T08:58:00;101645.50;;;27.39;39.09
66524;BME280;53350;52.210;5.160;2023-06-10T09:00:27;101653.91;;;27.57;38.32
66524;BME280;53350;52.210;5.160;2023-06-10T09:02:55;101647.28;;;27.75;38.09
66524;BME280;53350;52.210;5.160;2023-06-10T09:05:23;101649.13;;;27.86;38.16
66524;BME280;53350;52.210;5.160;2023-06-10T09:07:51;101652.53;;;28.01;37.76
66524;BME280;53350;52.210;5.160;2023-06-10T09:10:18;101645.56;;;28.12;36.70
66524;BME280;53350;52.210;5.160;2023-06-10T09:12:44;101646.06;;;28.17;36.78
66524;BME280;53350;52.210;5.160;2023-06-10T09:15:11;101646.06;;;28.17;37.14
66524;BME280;53350;52.210;5.160;2023-06-10T09:17:39;101647.06;;;28.27;37.53
66524;BME280;53350;52.210;5.160;2023-06-10T09:20:07;101642.88;;;28.36;36.47
66524;BME280;53350;52.210;5.160;2023-06-10T09:22:35;101649.41;;;28.43;37.05
66524;BME280;53350;52.210;5.160;2023-06-10T09:25:02;101654.84;;;28.53;36.53
66524;BME280;53350;52.210;5.160;2023-06-10T09:27:30;101652.22;;;28.53;37.00
66524;BME280;53350;52.210;5.160;2023-06-10T09:29:57;101661.38;;;28.60;36.47
66524;BME280;53350;52.210;5.160;2023-06-10T09:32:24;101651.19;;;28.67;36.52
66524;BME280;53350;52.210;5.160;2023-06-10T09:34:51;101647.84;;;28.76;35.75
66524;BME280;53350;52.210;5.160;2023-06-10T09:37:20;101642.03;;;28.82;35.53
66524;BME280;53350;52.210;5.160;2023-06-10T09:40:02;101647.34;;;28.82;36.30
66524;BME280;53350;52.210;5.160;2023-06-10T09:42:32;101655.94;;;28.86;35.98
66524;BME280;53350;52.210;5.160;2023-06-10T09:44:59;101645.31;;;28.86;36.16
66524;BME280;53350;52.210;5.160;2023-06-10T09:47:25;101647.50;;;28.92;36.05
66524;BME280;53350;52.210;5.160;2023-06-10T09:49:52;101645.56;;;29.05;35.44
66524;BME280;53350;52.210;5.160;2023-06-10T09:52:21;101644.88;;;29.26;35.30
66524;BME280;53350;52.210;5.160;2023-06-10T09:54:48;101644.97;;;29.47;34.53
66524;BME280;53350;52.210;5.160;2023-06-10T09:57:16;101642.31;;;29.58;34.58
66524;BME280;53350;52.210;5.160;2023-06-10T09:59:43;101646.97;;;29.66;34.26
66524;BME280;53350;52.210;5.160;2023-06-10T10:02:14;101638.75;;;29.69;33.81
66524;BME280;53350;52.210;5.160;2023-06-10T10:04:40;101645.09;;;29.57;33.68
66524;BME280;53350;52.210;5.160;2023-06-10T10:07:07;101648.00;;;29.42;34.33
66524;BME280;53350;52.210;5.160;2023-06-10T10:09:35;101650.06;;;29.39;33.71
66524;BME280;53350;52.210;5.160;2023-06-10T10:12:01;101663.09;;;29.42;33.56
66524;BME280;53350;52.210;5.160;2023-06-10T10:14:31;101632.56;;;29.47;33.41
66524;BME280;53350;52.210;5.160;2023-06-10T10:16:59;101626.38;;;29.47;34.15
66524;BME280;53350;52.210;5.160;2023-06-10T10:19:28;101630.63;;;29.49;33.24
66524;BME280;53350;52.210;5.160;2023-06-10T10:22:01;101636.28;;;29.56;33.56
66524;BME280;53350;52.210;5.160;2023-06-10T10:24:33;101625.16;;;29.62;33.55
66524;BME280;53350;52.210;5.160;2023-06-10T10:27:01;101624.91;;;29.65;33.16
66524;BME280;53350;52.210;5.160;2023-06-10T10:29:37;101623.81;;;29.68;33.54
66524;BME280;53350;52.210;5.160;2023-06-10T10:32:06;101624.88;;;29.77;33.01
66524;BME280;53350;52.210;5.160;2023-06-10T10:34:39;101624.88;;;29.88;32.72
66524;BME280;53350;52.210;5.160;2023-06-10T10:37:08;101635.03;;;29.83;33.12
66524;BME280;53350;52.210;5.160;2023-06-10T10:39:36;101625.47;;;29.80;32.76
66524;BME280;53350;52.210;5.160;2023-06-10T10:42:03;101624.88;;;29.88;32.52
66524;BME280;53350;52.210;5.160;2023-06-10T10:44:32;101615.56;;;29.94;32.24
66524;BME280;53350;52.210;5.160;2023-06-10T10:47:02;101611.44;;;30.01;31.85
66524;BME280;53350;52.210;5.160;2023-06-10T10:49:30;101613.66;;;30.17;32.31
66524;BME280;53350;52.210;5.160;2023-06-10T10:51:57;101621.53;;;30.28;31.66
66524;BME280;53350;52.210;5.160;2023-06-10T10:54:34;101617.78;;;30.31;31.84
66524;BME280;53350;52.210;5.160;2023-06-10T10:57:11;101621.63;;;30.38;30.81
66524;BME280;53350;52.210;5.160;2023-06-10T10:59:50;101600.75;;;30.33;30.82
66524;BME280;53350;52.210;5.160;2023-06-10T11:02:18;101623.84;;;30.33;30.63
66524;BME280;53350;52.210;5.160;2023-06-10T11:04:46;101602.81;;;30.30;29.70
66524;BME280;53350;52.210;5.160;2023-06-10T11:07:13;101600.66;;;30.24;30.24
66524;BME280;53350;52.210;5.160;2023-06-10T11:09:57;101605.06;;;30.13;31.00
66524;BME280;53350;52.210;5.160;2023-06-10T11:12:23;101595.75;;;30.19;30.75
66524;BME280;53350;52.210;5.160;2023-06-10T11:14:55;101600.28;;;30.28;30.48
66524;BME280;53350;52.210;5.160;2023-06-10T11:17:21;101595.16;;;30.37;30.24
66524;BME280;53350;52.210;5.160;2023-06-10T11:19:48;101605.53;;;30.40;29.80
66524;BME280;53350;52.210;5.160;2023-06-10T11:22:17;101578.38;;;30.36;30.07
66524;BME280;53350;52.210;5.160;2023-06-10T11:24:47;101587.06;;;30.38;31.12
66524;BME280;53350;52.210;5.160;2023-06-10T11:27:15;101585.22;;;30.39;30.58
66524;BME280;53350;52.210;5.160;2023-06-10T11:29:57;101581.38;;;30.43;30.74
66524;BME280;53350;52.210;5.160;2023-06-10T11:32:29;101590.81;;;30.35;30.89
66524;BME280;53350;52.210;5.160;2023-06-10T11:34:55;101582.53;;;30.50;30.08
66524;BME280;53350;52.210;5.160;2023-06-10T11:37:22;101588.59;;;30.62;29.62
66524;BME280;53350;52.210;5.160;2023-06-10T11:39:51;101576.59;;;30.67;29.81
66524;BME280;53350;52.210;5.160;2023-06-10T11:42:19;101572.72;;;30.72;28.97
66524;BME280;53350;52.210;5.160;2023-06-10T11:44:48;101579.84;;;30.71;29.07
66524;BME280;53350;52.210;5.160;2023-06-10T11:47:16;101578.47;;;30.77;28.22
66524;BME280;53350;52.210;5.160;2023-06-10T11:49:43;101573.84;;;30.79;28.54
66524;BME280;53350;52.210;5.160;2023-06-10T11:52:09;101567.66;;;30.68;28.85
66524;BME280;53350;52.210;5.160;2023-06-10T11:54:37;101565.81;;;30.59;29.86
66524;BME280;53350;52.210;5.160;2023-06-10T11:57:03;101574.47;;;30.61;29.52
66524;BME280;53350;52.210;5.160;2023-06-10T11:59:31;101564.94;;;30.59;29.85
66524;BME280;53350;52.210;5.160;2023-06-10T12:01:58;101568.34;;;30.61;29.03
66524;BME280;53350;52.210;5.160;2023-06-10T12:04:26;101573.94;;;30.67;28.49
66524;BME280;53350;52.210;5.160;2023-06-10T12:06:55;101567.78;;;30.67;28.89
66524;BME280;53350;52.210;5.160;2023-06-10T12:09:23;101560.13;;;30.74;28.45
66524;BME280;53350;52.210;5.160;2023-06-10T12:11:51;101555.38;;;30.77;28.67
66524;BME280;53350;52.210;5.160;2023-06-10T12:14:51;101547.41;;;30.77;28.46
66524;BME280;53350;52.210;5.160;2023-06-10T12:17:20;101541.13;;;30.78;28.65
66524;BME280;53350;52.210;5.160;2023-06-10T12:19:49;101549.28;;;30.86;27.95
66524;BME280;53350;52.210;5.160;2023-06-10T12:22:16;101546.75;;;30.95;27.65
66524;BME280;53350;52.210;5.160;2023-06-10T12:24:44;101541.03;;;30.99;28.37
66524;BME280;53350;52.210;5.160;2023-06-10T12:27:12;101539.78;;;30.94;28.38
66524;BME280;53350;52.210;5.160;2023-06-10T12:29:38;101543.69;;;30.99;28.38
66524;BME280;53350;52.210;5.160;2023-06-10T12:32:05;101531.50;;;30.97;28.29
66524;BME280;53350;52.210;5.160;2023-06-10T12:34:34;101542.84;;;30.99;27.73
66524;BME280;53350;52.210;5.160;2023-06-10T12:37:04;101533.38;;;31.06;27.16
66524;BME280;53350;52.210;5.160;2023-06-10T12:39:31;101539.94;;;31.02;27.49
66524;BME280;53350;52.210;5.160;2023-06-10T12:41:58;101541.38;;;31.06;27.71
66524;BME280;53350;52.210;5.160;2023-06-10T12:44:28;101534.22;;;31.07;27.81
66524;BME280;53350;52.210;5.160;2023-06-10T12:46:55;101543.56;;;31.01;27.89
66524;BME280;53350;52.210;5.160;2023-06-10T12:49:21;101532.97;;;31.11;27.26
66524;BME280;53350;52.210;5.160;2023-06-10T12:51:48;101531.56;;;31.07;27.62